Pertusola — IBER — position and weather

sailwx.info

Track history (hours):
 
Tides and Currents Weather Stations Pressure Air Temp Water Temp Dewpoint Dewpoint Depression Visibility Wind Speed Wind Dir Waves Ship Positions

Pertusola

Last reported at 2015-Mar-05 12:33 UTC. Time now 2015-Mar-05 22:35 UTC.
Position N 58°22' E 005°25'.

Length 145 m; draft 9.2 m.

Type: Ship (hazmat cat A). MMSI: 247399000.

Date/timePositionNaut miles runAvg speedWind from/ knotsBaromVisibWave heightAir tempDewpointWater temp
2015-Mar-05 12:33N 58°22' E 005°25'1413.2
2015-Mar-05 11:32N 58°13' E 005°44'1313.2
2015-Mar-05 10:34N 58°05' E 006°03'12812.3
2015-Mar-05 00:11N 57°49' E 010°02'812.4
2015-Mar-04 23:34N 57°49' E 010°17'1211.7
2015-Mar-04 22:33N 57°50' E 010°39'1111.1
2015-Mar-04 21:33N 57°44' E 010°56'1313.5
2015-Mar-04 20:34N 57°35' E 011°14'1312.7
2015-Mar-04 19:34N 57°25' E 011°29'1313.2
2015-Mar-04 18:34N 57°12' E 011°37'1313.1
2015-Mar-04 17:33N 56°60' E 011°45'1313.1
2015-Mar-04 16:33N 56°47' E 011°53'13011.7
2015-Mar-04 05:28N 54°41' E 010°56'1011.5
2015-Mar-04 04:33N 54°36' E 011°12'1211.9
2015-Mar-04 03:33N 54°31' E 011°30'1211.9
2015-Mar-04 02:34N 54°26' E 011°49'1211.8
2015-Mar-04 01:33N 54°27' E 012°09'1212.4
2015-Mar-04 00:33N 54°39' E 012°19'1312.9
2015-Mar-03 23:33N 54°45' E 012°38'1313.3
2015-Mar-03 22:33N 54°51' E 012°59'1613.4
2015-Mar-03 21:21N 54°57' E 013°25'1113.5
2015-Mar-03 20:34N 55°00' E 013°43'1313.3
2015-Mar-03 19:34N 55°05' E 014°04'1313.4
2015-Mar-03 18:34N 55°15' E 014°19'1313.1
2015-Mar-03 17:34N 55°26' E 014°33'1312.9
2015-Mar-03 16:34N 55°33' E 014°52'1312.9
2015-Mar-03 15:34N 55°39' E 015°12'  
2015-Mar-01 00:09N 55°38' E 015°24'915.2
2015-Feb-28 23:33N 55°33' E 015°10'1514.7
2015-Feb-28 22:33N 55°26' E 014°48'1514.6
2015-Feb-28 21:34N 55°16' E 014°29'1413.9
2015-Feb-28 20:33N 55°10' E 014°08'1514.6
2015-Feb-28 19:33N 55°11' E 013°43'1514.7
2015-Feb-28 18:34N 55°13' E 013°17'1514.8
2015-Feb-28 17:34N 55°15' E 012°51'1111.4
2015-Feb-28 16:33N 55°24' E 012°39'1110.6
2015-Feb-28 15:33N 55°34' E 012°42'1110.5
2015-Feb-28 14:33N 55°45' E 012°41'1413.6
2015-Feb-28 13:33N 55°58' E 012°40'1111.3
2015-Feb-28 12:33N 56°08' E 012°29'1414.3
2015-Feb-28 11:33N 56°16' E 012°08'1413.8
2015-Feb-28 10:33N 56°29' E 011°59'1514.9
2015-Feb-28 09:33N 56°43' E 011°53'1414.4
2015-Feb-28 08:33N 56°57' E 011°44'1414.4
2015-Feb-28 07:33N 57°10' E 011°36'1414.2
2015-Feb-28 06:33N 57°24' E 011°26'1313.4
2015-Feb-28 05:33N 57°34' E 011°10'1414.1
2015-Feb-28 04:33N 57°44' E 010°51'1514.9
2015-Feb-28 03:33N 57°57' E 010°36'1515.1
2015-Feb-28 02:33N 58°10' E 010°25'1515.4
2015-Feb-28 01:33N 58°25' E 010°14'3315.0
2015-Feb-27 23:22N 58°55' E 009°49'810.0
2015-Feb-27 22:33N 59°02' E 009°43'5 4.8
2015-Feb-27 21:26N 59°07' E 009°38'0 0.0
2015-Feb-26 21:28N 59°07' E 009°38'5 3.8
2015-Feb-26 20:11N 59°03' E 009°43'5 7.7
2015-Feb-26 19:32N 58°58' E 009°46'29 8.8
2015-Feb-26 16:11N 58°31' E 010°09'914.2
2015-Feb-26 15:33N 58°23' E 010°16'1413.8
2015-Feb-26 14:33N 58°10' E 010°27'1413.9
2015-Feb-26 13:33N 57°58' E 010°37'1713.6
2015-Feb-26 12:19N 57°44' E 010°56'1013.7
2015-Feb-26 11:33N 57°37' E 011°10'1414.1
2015-Feb-26 10:34N 57°27' E 011°29'1514.7
2015-Feb-26 09:33N 57°13' E 011°37'1515.1
2015-Feb-26 08:32N 56°58' E 011°47'1414.5
2015-Feb-26 07:33N 56°45' E 011°52'12712.7
2015-Feb-25 21:30N 54°41' E 010°56'1313.9
2015-Feb-25 20:34N 54°35' E 011°16'1514.5
2015-Feb-25 19:34N 54°29' E 011°39'1413.9
2015-Feb-25 18:33N 54°26' E 012°02'1312.7
2015-Feb-25 17:33N 54°37' E 012°15'1414.2
2015-Feb-25 16:33N 54°45' E 012°35'1414.0
2015-Feb-25 15:33N 54°51' E 012°57'1814.1
2015-Feb-25 14:15N 54°57' E 013°28'1613.7
2015-Feb-25 13:05N 55°02' E 013°54'2113.6
2015-Feb-25 11:33N 55°17' E 014°21'1514.1
2015-Feb-25 10:31N 55°28' E 014°37'1713.8
2015-Feb-25 09:18N 55°36' E 015°03'1013.7
2015-Feb-25 08:33N 55°41' E 015°19'  
Track history (hours):
 
Tides and Currents Weather Stations Pressure Air Temp Water Temp Dewpoint Dewpoint Depression Visibility Wind Speed Wind Dir Waves Ship Positions

Pertusola

Last reported at 2015-Mar-05 12:33 UTC. Time now 2015-Mar-05 22:35 UTC.
Position N 58°22' E 005°25'.

Length 145 m; draft 9.2 m.

Type: Ship (hazmat cat A). MMSI: 247399000.

Date/timePositionNaut miles runAvg speedWind from/ knotsBaromVisibWave heightAir tempDewpointWater temp
2015-Mar-05 12:33N 58°22' E 005°25'1413.2
2015-Mar-05 11:32N 58°13' E 005°44'1313.2
2015-Mar-05 10:34N 58°05' E 006°03'12812.3
2015-Mar-05 00:11N 57°49' E 010°02'812.4
2015-Mar-04 23:34N 57°49' E 010°17'1211.7
2015-Mar-04 22:33N 57°50' E 010°39'1111.1
2015-Mar-04 21:33N 57°44' E 010°56'1313.5
2015-Mar-04 20:34N 57°35' E 011°14'1312.7
2015-Mar-04 19:34N 57°25' E 011°29'1313.2
2015-Mar-04 18:34N 57°12' E 011°37'1313.1
2015-Mar-04 17:33N 56°60' E 011°45'1313.1
2015-Mar-04 16:33N 56°47' E 011°53'13011.7
2015-Mar-04 05:28N 54°41' E 010°56'1011.5
2015-Mar-04 04:33N 54°36' E 011°12'1211.9
2015-Mar-04 03:33N 54°31' E 011°30'1211.9
2015-Mar-04 02:34N 54°26' E 011°49'1211.8
2015-Mar-04 01:33N 54°27' E 012°09'1212.4
2015-Mar-04 00:33N 54°39' E 012°19'1312.9
2015-Mar-03 23:33N 54°45' E 012°38'1313.3
2015-Mar-03 22:33N 54°51' E 012°59'1613.4
2015-Mar-03 21:21N 54°57' E 013°25'1113.5
2015-Mar-03 20:34N 55°00' E 013°43'1313.3
2015-Mar-03 19:34N 55°05' E 014°04'1313.4
2015-Mar-03 18:34N 55°15' E 014°19'1313.1
2015-Mar-03 17:34N 55°26' E 014°33'1312.9
2015-Mar-03 16:34N 55°33' E 014°52'1312.9
2015-Mar-03 15:34N 55°39' E 015°12'  
2015-Mar-01 00:09N 55°38' E 015°24'915.2
2015-Feb-28 23:33N 55°33' E 015°10'1514.7
2015-Feb-28 22:33N 55°26' E 014°48'1514.6
2015-Feb-28 21:34N 55°16' E 014°29'1413.9
2015-Feb-28 20:33N 55°10' E 014°08'1514.6
2015-Feb-28 19:33N 55°11' E 013°43'1514.7
2015-Feb-28 18:34N 55°13' E 013°17'1514.8
2015-Feb-28 17:34N 55°15' E 012°51'1111.4
2015-Feb-28 16:33N 55°24' E 012°39'1110.6
2015-Feb-28 15:33N 55°34' E 012°42'1110.5
2015-Feb-28 14:33N 55°45' E 012°41'1413.6
2015-Feb-28 13:33N 55°58' E 012°40'1111.3
2015-Feb-28 12:33N 56°08' E 012°29'1414.3
2015-Feb-28 11:33N 56°16' E 012°08'1413.8
2015-Feb-28 10:33N 56°29' E 011°59'1514.9
2015-Feb-28 09:33N 56°43' E 011°53'1414.4
2015-Feb-28 08:33N 56°57' E 011°44'1414.4
2015-Feb-28 07:33N 57°10' E 011°36'1414.2
2015-Feb-28 06:33N 57°24' E 011°26'1313.4
2015-Feb-28 05:33N 57°34' E 011°10'1414.1
2015-Feb-28 04:33N 57°44' E 010°51'1514.9
2015-Feb-28 03:33N 57°57' E 010°36'1515.1
2015-Feb-28 02:33N 58°10' E 010°25'1515.4
2015-Feb-28 01:33N 58°25' E 010°14'3315.0
2015-Feb-27 23:22N 58°55' E 009°49'810.0
2015-Feb-27 22:33N 59°02' E 009°43'5 4.8
2015-Feb-27 21:26N 59°07' E 009°38'0 0.0
2015-Feb-26 21:28N 59°07' E 009°38'5 3.8
2015-Feb-26 20:11N 59°03' E 009°43'5 7.7
2015-Feb-26 19:32N 58°58' E 009°46'29 8.8
2015-Feb-26 16:11N 58°31' E 010°09'914.2
2015-Feb-26 15:33N 58°23' E 010°16'1413.8
2015-Feb-26 14:33N 58°10' E 010°27'1413.9
2015-Feb-26 13:33N 57°58' E 010°37'1713.6
2015-Feb-26 12:19N 57°44' E 010°56'1013.7
2015-Feb-26 11:33N 57°37' E 011°10'1414.1
2015-Feb-26 10:34N 57°27' E 011°29'1514.7
2015-Feb-26 09:33N 57°13' E 011°37'1515.1
2015-Feb-26 08:32N 56°58' E 011°47'1414.5
2015-Feb-26 07:33N 56°45' E 011°52'12712.7
2015-Feb-25 21:30N 54°41' E 010°56'1313.9
2015-Feb-25 20:34N 54°35' E 011°16'1514.5
2015-Feb-25 19:34N 54°29' E 011°39'1413.9
2015-Feb-25 18:33N 54°26' E 012°02'1312.7
2015-Feb-25 17:33N 54°37' E 012°15'1414.2
2015-Feb-25 16:33N 54°45' E 012°35'1414.0
2015-Feb-25 15:33N 54°51' E 012°57'1814.1
2015-Feb-25 14:15N 54°57' E 013°28'1613.7
2015-Feb-25 13:05N 55°02' E 013°54'2113.6
2015-Feb-25 11:33N 55°17' E 014°21'1514.1
2015-Feb-25 10:31N 55°28' E 014°37'1713.8
2015-Feb-25 09:18N 55°36' E 015°03'1013.7
2015-Feb-25 08:33N 55°41' E 015°19'  

Dump ship's entire track history